Aviation Digital Data Service (ADDS)

Output produced by METARs form (1808 UTC 21 September 2019)
found at http://aviationweather.gov/metar/data/
 
KMLU 211734Z 2118/2218 16007KT P6SM SCT050 
     FM220200 14003KT P6SM SKC 
     FM221000 15003KT 4SM BR SKC 
     FM221400 16006KT P6SM SKC 
     FM221600 18007KT P6SM FEW030